createdAt,value
2018-07-23T00:01:11.258Z,101006.37
2018-07-23T00:03:39.578Z,101008.78
2018-07-23T00:06:07.927Z,101004.48
2018-07-23T00:08:36.267Z,101005.84
2018-07-23T00:11:05.003Z,101002.13
2018-07-23T00:13:33.321Z,101002.77
2018-07-23T00:16:01.673Z,101004.38
2018-07-23T00:18:30.024Z,101003.46
2018-07-23T00:20:58.365Z,101011.71
2018-07-23T00:23:26.689Z,101009.74
2018-07-23T00:25:54.999Z,101001.61
2018-07-23T00:28:23.379Z,100994.22
2018-07-23T00:30:51.717Z,101001.02
2018-07-23T00:33:20.084Z,101007.59
2018-07-23T00:35:48.444Z,101004.70
2018-07-23T00:38:16.783Z,101012.02
2018-07-23T00:40:45.126Z,101013.77
2018-07-23T00:43:13.471Z,101008.23
2018-07-23T00:45:42.469Z,101008.64
2018-07-23T00:48:10.827Z,101006.97
2018-07-23T00:50:39.219Z,101004.52
2018-07-23T00:53:07.580Z,101008.94
2018-07-23T00:55:35.918Z,101011.91
2018-07-23T00:58:04.309Z,101011.89
2018-07-23T01:00:32.676Z,101014.38
2018-07-23T01:03:06.912Z,101004.80
2018-07-23T01:05:37.363Z,101008.09
2018-07-23T01:08:06.111Z,101003.88
2018-07-23T01:10:34.442Z,101006.95
2018-07-23T01:13:02.753Z,101009.58
2018-07-23T01:15:31.088Z,101018.00
2018-07-23T01:17:59.409Z,101010.38
2018-07-23T01:20:27.749Z,101011.00
2018-07-23T01:22:56.089Z,101013.55
2018-07-23T01:25:24.449Z,101012.09
2018-07-23T01:27:52.798Z,101021.84
2018-07-23T01:30:21.137Z,101014.05
2018-07-23T01:32:49.440Z,101014.53
2018-07-23T01:35:17.741Z,101017.12
2018-07-23T01:37:46.099Z,101021.64
2018-07-23T01:40:14.451Z,101018.97
2018-07-23T01:42:42.900Z,101021.01
2018-07-23T01:45:11.226Z,101018.31
2018-07-23T01:47:39.590Z,101014.91
2018-07-23T01:50:07.942Z,101017.77
2018-07-23T01:52:36.409Z,101022.29
2018-07-23T01:55:05.011Z,101016.31
2018-07-23T01:57:33.377Z,101017.55
2018-07-23T02:00:01.719Z,101020.92
2018-07-23T02:02:30.054Z,101007.97
2018-07-23T02:04:58.404Z,101017.19
2018-07-23T02:07:26.792Z,101017.41
2018-07-23T02:09:55.145Z,101019.44
2018-07-23T02:12:23.487Z,101013.80
2018-07-23T02:14:51.862Z,101013.09
2018-07-23T02:17:20.192Z,101014.86
2018-07-23T02:19:48.552Z,101013.52
2018-07-23T02:22:16.874Z,101018.65
2018-07-23T02:24:45.190Z,101016.80
2018-07-23T02:27:13.534Z,101020.11
2018-07-23T02:29:41.933Z,101017.86
2018-07-23T02:32:10.459Z,101016.64
2018-07-23T02:34:38.805Z,101017.77
2018-07-23T02:37:07.620Z,101018.07
2018-07-23T02:39:36.030Z,101022.20
2018-07-23T02:42:04.395Z,101026.32
2018-07-23T02:44:33.303Z,101027.45
2018-07-23T02:47:01.809Z,101028.90
2018-07-23T02:49:30.180Z,101024.08
2018-07-23T02:51:58.506Z,101028.59
2018-07-23T02:54:26.884Z,101030.23
2018-07-23T02:56:55.243Z,101036.09
2018-07-23T02:59:23.752Z,101038.88
2018-07-23T03:01:52.065Z,101036.73
2018-07-23T03:04:20.424Z,101043.41
2018-07-23T03:06:48.741Z,101040.41
2018-07-23T03:09:17.125Z,101042.77
2018-07-23T03:11:45.470Z,101038.98
2018-07-23T03:14:13.835Z,101044.41
2018-07-23T03:16:42.173Z,101052.94
2018-07-23T03:19:10.529Z,101046.26
2018-07-23T03:21:38.878Z,101050.60
2018-07-23T03:24:07.222Z,101049.87
2018-07-23T03:26:35.558Z,101051.72
2018-07-23T03:29:03.923Z,101051.42
2018-07-23T03:31:32.234Z,101059.61
2018-07-23T03:34:00.579Z,101051.30
2018-07-23T03:36:28.907Z,101060.34
2018-07-23T03:38:57.370Z,101060.34
2018-07-23T03:41:25.727Z,101064.34
2018-07-23T03:43:54.092Z,101063.83
2018-07-23T03:46:22.411Z,101071.72
2018-07-23T03:48:50.879Z,101068.11
2018-07-23T03:51:19.228Z,101069.33
2018-07-23T03:53:47.570Z,101072.72
2018-07-23T03:56:15.892Z,101069.93
2018-07-23T03:58:44.279Z,101074.45
2018-07-23T04:01:12.599Z,101073.94
2018-07-23T04:03:41.072Z,101074.75
2018-07-23T04:06:09.400Z,101080.91
2018-07-23T04:08:37.833Z,101075.78
2018-07-23T04:11:06.315Z,101079.97
2018-07-23T04:13:34.657Z,101083.50
2018-07-23T04:16:03.041Z,101084.62
2018-07-23T04:18:31.421Z,101087.80
2018-07-23T04:20:59.718Z,101090.47
2018-07-23T04:23:28.069Z,101086.29
2018-07-23T04:25:56.423Z,101085.66
2018-07-23T04:28:24.774Z,101083.32
2018-07-23T04:30:53.101Z,101081.27
2018-07-23T04:33:21.455Z,101088.66
2018-07-23T04:35:49.827Z,101099.48
2018-07-23T04:38:18.183Z,101099.89
2018-07-23T04:40:46.590Z,101100.48
2018-07-23T04:43:14.931Z,101101.15
2018-07-23T04:45:43.292Z,101107.89
2018-07-23T04:48:11.633Z,101105.55
2018-07-23T04:50:40.310Z,101100.57
2018-07-23T04:53:08.614Z,101114.56
2018-07-23T04:55:36.948Z,101109.28
2018-07-23T04:58:05.367Z,101112.93
2018-07-23T05:00:33.709Z,101114.33
2018-07-23T05:03:02.030Z,101110.64
2018-07-23T05:05:30.349Z,101111.42
2018-07-23T05:07:58.693Z,101108.96
2018-07-23T05:10:27.044Z,101110.40
2018-07-23T05:12:55.505Z,101103.16
2018-07-23T05:15:23.876Z,101110.00
2018-07-23T05:17:52.217Z,101114.84
2018-07-23T05:20:20.530Z,101118.80
2018-07-23T05:22:48.828Z,101115.11
2018-07-23T05:25:17.149Z,101110.66
2018-07-23T05:27:45.519Z,101112.11
2018-07-23T05:30:13.901Z,101124.14
2018-07-23T05:32:42.259Z,101118.49
2018-07-23T05:35:10.651Z,101124.46
2018-07-23T05:37:39.010Z,101126.63
2018-07-23T05:40:07.569Z,101125.83
2018-07-23T05:42:35.870Z,101127.75
2018-07-23T05:45:04.669Z,101128.86
2018-07-23T05:47:33.019Z,101126.09
2018-07-23T05:50:01.414Z,101124.76
2018-07-23T05:52:29.730Z,101125.56
2018-07-23T05:54:58.168Z,101124.41
2018-07-23T05:57:26.524Z,101118.64
2018-07-23T05:59:54.896Z,101112.62
2018-07-23T06:02:23.267Z,101113.53
2018-07-23T06:04:51.811Z,101121.91
2018-07-23T06:07:20.184Z,101131.48
2018-07-23T06:09:48.528Z,101125.36
2018-07-23T06:12:16.935Z,101135.50
2018-07-23T06:14:45.330Z,101133.50
2018-07-23T06:17:13.719Z,101130.27
2018-07-23T06:19:42.054Z,101137.48
2018-07-23T06:22:10.451Z,101127.31
2018-07-23T06:24:38.804Z,101129.36
2018-07-23T06:27:07.147Z,101128.92
2018-07-23T06:29:35.530Z,101136.13
2018-07-23T06:32:03.880Z,101132.88
2018-07-23T06:34:32.248Z,101139.44
2018-07-23T06:37:00.620Z,101136.88
2018-07-23T06:39:29.009Z,101131.69
2018-07-23T06:41:57.373Z,101134.77
2018-07-23T06:44:25.734Z,101138.70
2018-07-23T06:46:54.077Z,101136.00
2018-07-23T06:49:22.537Z,101138.98
2018-07-23T06:51:50.865Z,101142.08
2018-07-23T06:54:19.307Z,101141.54
2018-07-23T06:56:47.629Z,101142.42
2018-07-23T06:59:15.944Z,101143.53
2018-07-23T07:01:44.311Z,101143.24
2018-07-23T07:04:12.766Z,101143.84
2018-07-23T07:06:41.115Z,101145.72
2018-07-23T07:09:10.455Z,101147.53
2018-07-23T07:11:39.058Z,101147.11
2018-07-23T07:14:07.962Z,101145.30
2018-07-23T07:16:36.344Z,101144.41
2018-07-23T07:19:04.683Z,101142.35
2018-07-23T07:21:32.999Z,101153.19
2018-07-23T07:24:01.337Z,101149.34
2018-07-23T07:26:29.655Z,101152.31
2018-07-23T07:28:58.093Z,101143.88
2018-07-23T07:31:26.526Z,101144.40
2018-07-23T07:33:54.876Z,101147.45
2018-07-23T07:36:23.229Z,101144.30
2018-07-23T07:38:51.599Z,101154.44
2018-07-23T07:41:19.960Z,101147.53
2018-07-23T07:43:48.304Z,101148.56
2018-07-23T07:46:16.724Z,101143.59
2018-07-23T07:48:45.084Z,101136.41
2018-07-23T07:51:13.461Z,101135.16
2018-07-23T07:53:41.928Z,101146.04
2018-07-23T07:56:10.314Z,101139.02
2018-07-23T07:58:38.644Z,101145.97
2018-07-23T08:01:07.050Z,101139.23
2018-07-23T08:03:35.409Z,101139.59
2018-07-23T08:06:03.799Z,101142.81
2018-07-23T08:08:32.226Z,101142.47
2018-07-23T08:11:00.585Z,101136.50
2018-07-23T08:13:29.059Z,101144.94
2018-07-23T08:15:57.433Z,101133.70
2018-07-23T08:18:25.753Z,101138.56
2018-07-23T08:20:54.115Z,101143.13
2018-07-23T08:23:22.493Z,101139.55
2018-07-23T08:25:50.924Z,101137.14
2018-07-23T08:28:19.255Z,101141.78
2018-07-23T08:30:47.574Z,101144.59
2018-07-23T08:33:15.991Z,101139.70
2018-07-23T08:35:44.357Z,101140.86
2018-07-23T08:38:12.735Z,101140.68
2018-07-23T08:40:41.113Z,101137.81
2018-07-23T08:43:09.513Z,101137.63
2018-07-23T08:45:37.895Z,101141.44
2018-07-23T08:48:06.265Z,101143.51
2018-07-23T08:50:34.835Z,101146.42
2018-07-23T08:53:03.173Z,101147.61
2018-07-23T08:55:31.509Z,101150.83
2018-07-23T08:57:59.838Z,101143.39
2018-07-23T09:00:28.312Z,101145.73
2018-07-23T09:02:56.668Z,101148.41
2018-07-23T09:05:25.079Z,101147.47
2018-07-23T09:07:53.408Z,101142.39
2018-07-23T09:10:21.752Z,101145.08
2018-07-23T09:12:50.176Z,101150.85
2018-07-23T09:15:18.559Z,101152.89
2018-07-23T09:17:46.900Z,101146.69
2018-07-23T09:20:15.265Z,101146.15
2018-07-23T09:22:43.636Z,101149.00
2018-07-23T09:25:12.031Z,101148.87
2018-07-23T09:27:40.418Z,101152.03
2018-07-23T09:31:11.959Z,101153.02
2018-07-23T09:33:40.846Z,101156.84
2018-07-23T09:36:09.572Z,101155.68
2018-07-23T09:38:37.925Z,101146.91
2018-07-23T09:41:06.559Z,101153.89
2018-07-23T09:43:34.931Z,101147.98
2018-07-23T09:46:03.293Z,101145.30
2018-07-23T09:48:31.667Z,101153.25
2018-07-23T09:51:00.052Z,101150.89
2018-07-23T09:53:28.401Z,101149.75
2018-07-23T09:55:56.724Z,101147.14
2018-07-23T09:58:25.051Z,101152.65
2018-07-23T10:01:01.591Z,101144.16
2018-07-23T10:03:29.931Z,101150.09
2018-07-23T10:05:58.289Z,101148.01
2018-07-23T10:08:26.636Z,101146.23
2018-07-23T10:10:54.987Z,101143.28
2018-07-23T10:13:23.332Z,101139.72
2018-07-23T10:15:51.686Z,101138.42
2018-07-23T10:18:20.014Z,101138.95
2018-07-23T10:20:48.370Z,101144.19
2018-07-23T10:23:16.710Z,101139.41
2018-07-23T10:25:45.061Z,101136.76
2018-07-23T10:28:13.403Z,101139.99
2018-07-23T10:30:41.876Z,101131.28
2018-07-23T10:33:10.223Z,101134.80
2018-07-23T10:35:38.676Z,101133.25
2018-07-23T10:38:07.075Z,101132.30
2018-07-23T10:40:35.432Z,101142.10
2018-07-23T10:43:03.821Z,101139.09
2018-07-23T10:45:32.159Z,101134.02
2018-07-23T10:48:00.449Z,101134.17
2018-07-23T10:50:28.827Z,101128.10
2018-07-23T10:52:57.132Z,101133.52
2018-07-23T10:55:25.475Z,101132.48
2018-07-23T10:57:53.960Z,101129.18
2018-07-23T11:00:22.300Z,101122.66
2018-07-23T11:02:50.620Z,101128.06
2018-07-23T11:05:19.011Z,101127.30
2018-07-23T11:07:47.340Z,101125.69
2018-07-23T11:10:15.756Z,101117.97
2018-07-23T11:12:44.177Z,101110.73
2018-07-23T11:15:12.539Z,101114.62
2018-07-23T11:17:40.849Z,101110.41
2018-07-23T11:20:11.401Z,101120.09
2018-07-23T11:22:40.040Z,101112.10
2018-07-23T11:25:38.504Z,101114.86
2018-07-23T11:27:36.797Z,101112.53
2018-07-23T11:30:05.658Z,101112.31
2018-07-23T11:32:34.497Z,101110.73
2018-07-23T11:35:02.830Z,101105.41
2018-07-23T11:37:31.329Z,101115.52
2018-07-23T11:39:59.644Z,101110.75
2018-07-23T11:42:28.045Z,101112.30
2018-07-23T11:44:56.392Z,101116.51
2018-07-23T11:47:25.018Z,101116.88
2018-07-23T11:49:53.434Z,101113.89
2018-07-23T11:52:21.800Z,101107.73
2018-07-23T11:54:50.152Z,101105.38
2018-07-23T11:57:18.472Z,101105.97
2018-07-23T11:59:46.923Z,101110.65
2018-07-23T12:02:15.252Z,101105.23
2018-07-23T12:04:43.776Z,101099.98
2018-07-23T12:07:11.938Z,101097.95
2018-07-23T12:09:40.257Z,101097.45
2018-07-23T12:12:08.618Z,101104.48
2018-07-23T12:14:37.077Z,101099.88
2018-07-23T12:17:05.745Z,101095.28
2018-07-23T12:19:34.105Z,101096.94
2018-07-23T12:22:02.536Z,101095.97
2018-07-23T12:24:30.992Z,101092.14
2018-07-23T12:26:59.416Z,101100.53
2018-07-23T12:29:28.470Z,101100.30
2018-07-23T12:31:56.828Z,101088.17
2018-07-23T12:34:25.114Z,101090.30
2018-07-23T12:36:53.450Z,101094.35
2018-07-23T12:39:21.950Z,101090.38
2018-07-23T12:41:50.256Z,101086.47
2018-07-23T12:44:18.606Z,101091.11
2018-07-23T12:46:47.001Z,101085.46
2018-07-23T12:49:15.315Z,101083.33
2018-07-23T12:51:46.501Z,101085.77
2018-07-23T12:54:14.804Z,101089.75
2018-07-23T12:56:43.226Z,101086.08
2018-07-23T12:59:11.794Z,101084.30
2018-07-23T13:01:40.249Z,101085.89
2018-07-23T13:04:08.557Z,101077.03
2018-07-23T13:06:37.020Z,101078.74
2018-07-23T13:09:08.667Z,101081.64
2018-07-23T13:11:37.120Z,101079.20
2018-07-23T13:14:05.494Z,101082.06
2018-07-23T13:16:33.877Z,101084.23
2018-07-23T13:19:02.442Z,101072.94
2018-07-23T13:21:30.903Z,101078.13
2018-07-23T13:23:59.217Z,101075.55
2018-07-23T13:26:27.602Z,101076.13
2018-07-23T13:28:55.956Z,101076.44
2018-07-23T13:31:24.496Z,101071.30
2018-07-23T13:33:52.867Z,101071.05
2018-07-23T13:36:21.275Z,101070.34
2018-07-23T13:38:49.748Z,101062.01
2018-07-23T13:41:18.112Z,101061.25
2018-07-23T13:43:46.485Z,101068.89
2018-07-23T13:46:14.837Z,101064.32
2018-07-23T13:48:43.174Z,101065.44
2018-07-23T13:51:11.558Z,101061.66
2018-07-23T13:53:39.968Z,101067.59
2018-07-23T13:56:08.361Z,101061.25
2018-07-23T13:58:36.692Z,101058.73
2018-07-23T14:01:05.061Z,101057.76
2018-07-23T14:03:33.387Z,101053.09
2018-07-23T14:06:01.898Z,101056.27
2018-07-23T14:08:30.335Z,101052.48
2018-07-23T14:10:58.710Z,101048.52
2018-07-23T14:13:27.107Z,101040.22
2018-07-23T14:15:55.632Z,101036.23
2018-07-23T14:18:24.014Z,101034.69
2018-07-23T14:20:52.475Z,101037.78
2018-07-23T14:23:21.402Z,101032.61
2018-07-23T14:25:49.748Z,101035.56
2018-07-23T14:28:18.158Z,101031.25
2018-07-23T14:30:46.517Z,101034.53
2018-07-23T14:33:16.061Z,101027.24
2018-07-23T14:35:46.701Z,101022.37
2018-07-23T14:38:15.166Z,101023.23
2018-07-23T14:40:46.418Z,101025.72
2018-07-23T14:43:19.937Z,101021.70
2018-07-23T14:45:48.498Z,101019.84
2018-07-23T14:48:17.148Z,101026.18
2018-07-23T14:50:45.706Z,101027.30
2018-07-23T14:53:14.074Z,101020.00
2018-07-23T14:55:42.576Z,101021.64
2018-07-23T14:58:10.886Z,101023.00
2018-07-23T15:00:39.284Z,101018.35
2018-07-23T15:03:07.856Z,101019.96
2018-07-23T15:05:36.224Z,101012.64
2018-07-23T15:08:04.723Z,101014.84
2018-07-23T15:10:33.124Z,101019.45
2018-07-23T15:13:01.457Z,101019.73
2018-07-23T15:15:29.803Z,101015.39
2018-07-23T15:17:58.138Z,101009.42
2018-07-23T15:20:26.487Z,101010.27
2018-07-23T15:22:55.001Z,101014.31
2018-07-23T15:25:23.315Z,101014.02
2018-07-23T15:27:51.689Z,101015.40
2018-07-23T15:30:20.404Z,101010.78
2018-07-23T15:32:48.716Z,101017.09
2018-07-23T15:35:17.944Z,101010.84
2018-07-23T15:37:46.263Z,101009.19
2018-07-23T15:40:14.817Z,101010.58
2018-07-23T15:42:43.172Z,101011.14
2018-07-23T15:45:11.603Z,101007.88
2018-07-23T15:47:40.428Z,101010.06
2018-07-23T15:50:09.014Z,101008.45
2018-07-23T15:52:37.722Z,101002.17
2018-07-23T15:55:06.282Z,100995.63
2018-07-23T15:57:34.878Z,101007.85
2018-07-23T16:00:03.241Z,100995.94
2018-07-23T16:02:31.981Z,101001.36
2018-07-23T16:05:00.319Z,101002.20
2018-07-23T16:07:28.785Z,100997.59
2018-07-23T16:09:57.202Z,100998.69
2018-07-23T16:12:25.547Z,100997.31
2018-07-23T16:14:54.981Z,100990.52
2018-07-23T16:17:23.303Z,100994.28
2018-07-23T16:19:52.486Z,100989.13
2018-07-23T16:22:21.084Z,100991.28
2018-07-23T16:24:49.394Z,100986.98
2018-07-23T16:27:17.840Z,100994.86
2018-07-23T16:29:46.135Z,100991.06
2018-07-23T16:32:14.494Z,100988.09
2018-07-23T16:34:42.823Z,100984.52
2018-07-23T16:37:11.186Z,100989.42
2018-07-23T16:39:39.488Z,100989.41
2018-07-23T16:42:07.877Z,100989.91
2018-07-23T16:44:36.239Z,100982.05
2018-07-23T16:47:04.640Z,100986.11
2018-07-23T16:49:32.948Z,100987.70
2018-07-23T16:52:01.221Z,100985.80
2018-07-23T16:54:29.928Z,100990.11
2018-07-23T16:56:58.266Z,100989.78
2018-07-23T16:59:26.634Z,100986.27
2018-07-23T17:01:54.938Z,100980.84
2018-07-23T17:04:23.274Z,100983.53
2018-07-23T17:06:51.601Z,100982.71
2018-07-23T17:09:20.012Z,100982.42
2018-07-23T17:11:48.328Z,100988.91
2018-07-23T17:14:16.703Z,100985.13
2018-07-23T17:16:45.059Z,100985.13
2018-07-23T17:19:13.391Z,100991.06
2018-07-23T17:21:41.756Z,100988.34
2018-07-23T17:24:10.128Z,100987.20
2018-07-23T17:26:38.458Z,100985.02
2018-07-23T17:29:06.924Z,100989.05
2018-07-23T17:31:35.231Z,100985.29
2018-07-23T17:34:03.560Z,100983.91
2018-07-23T17:36:31.900Z,100985.23
2018-07-23T17:39:00.266Z,100988.22
2018-07-23T17:41:28.608Z,100987.11
2018-07-23T17:43:56.941Z,100987.62
2018-07-23T17:46:25.253Z,100992.20
2018-07-23T17:48:53.580Z,100988.66
2018-07-23T17:51:21.895Z,100985.36
2018-07-23T17:53:50.532Z,100986.66
2018-07-23T17:56:18.861Z,100990.09
2018-07-23T17:58:47.176Z,100983.59
2018-07-23T18:01:15.572Z,100981.70
2018-07-23T18:03:43.856Z,100988.16
2018-07-23T18:06:12.160Z,100989.22
2018-07-23T18:08:40.467Z,100990.06
2018-07-23T18:11:08.879Z,100987.59
2018-07-23T18:13:37.187Z,100995.47
2018-07-23T18:16:05.522Z,100990.57
2018-07-23T18:18:33.853Z,100989.76
2018-07-23T18:21:02.314Z,100994.91
2018-07-23T18:23:31.242Z,100989.97
2018-07-23T18:26:00.022Z,100992.41
2018-07-23T18:28:28.530Z,100983.74
2018-07-23T18:30:56.886Z,100986.72
2018-07-23T18:33:25.221Z,100988.31
2018-07-23T18:35:53.533Z,100992.34
2018-07-23T18:38:21.950Z,100987.13
2018-07-23T18:40:50.309Z,100988.42
2018-07-23T18:43:18.631Z,100987.00
2018-07-23T18:45:46.961Z,100991.88
2018-07-23T18:49:32.112Z,100986.42
2018-07-23T18:52:00.421Z,100985.00
2018-07-23T18:54:29.946Z,100987.06
2018-07-23T18:56:59.564Z,100985.67
2018-07-23T18:59:27.931Z,100988.84
2018-07-23T19:01:57.034Z,100987.38
2018-07-23T19:04:25.418Z,100985.91
2018-07-23T19:06:53.749Z,100980.95
2018-07-23T19:09:23.573Z,100982.72
2018-07-23T19:11:53.012Z,100987.71
2018-07-23T19:14:21.563Z,100993.71
2018-07-23T19:16:50.910Z,100991.68
2018-07-23T19:19:19.200Z,100995.63
2018-07-23T19:21:47.525Z,100999.05
2018-07-23T19:24:15.891Z,101004.34
2018-07-23T19:26:44.260Z,100999.86
2018-07-23T19:29:12.579Z,101004.30
2018-07-23T19:31:40.989Z,101013.09
2018-07-23T19:34:09.366Z,101012.41
2018-07-23T19:36:37.750Z,101014.72
2018-07-23T19:39:09.706Z,101014.88
2018-07-23T19:41:38.610Z,101013.88
2018-07-23T19:44:07.776Z,101017.27
2018-07-23T19:46:36.113Z,101008.73
2018-07-23T19:49:04.637Z,101019.69
2018-07-23T19:51:33.131Z,101014.91
2018-07-23T19:54:01.507Z,101018.22
2018-07-23T19:56:29.820Z,101022.84
2018-07-23T19:58:58.218Z,101020.01
2018-07-23T20:01:26.599Z,101018.81
2018-07-23T20:03:54.896Z,101020.14
2018-07-23T20:06:24.604Z,101022.77
2018-07-23T20:08:53.941Z,101022.96
2018-07-23T20:11:23.009Z,101016.16
2018-07-23T20:13:51.537Z,101022.84
2018-07-23T20:16:20.040Z,101020.92
2018-07-23T20:18:48.404Z,101023.78
2018-07-23T20:21:16.835Z,101017.23
2018-07-23T20:23:45.442Z,101014.09
2018-07-23T20:26:13.860Z,101018.47
2018-07-23T20:28:42.627Z,101018.75
2018-07-23T20:31:10.928Z,101012.94
2018-07-23T20:33:39.285Z,101012.06
2018-07-23T20:36:07.667Z,101010.80
2018-07-23T20:38:36.461Z,101010.84
2018-07-23T20:41:04.847Z,101016.26
2018-07-23T20:43:33.882Z,101017.64
2018-07-23T20:46:02.521Z,101023.97
2018-07-23T20:48:30.847Z,101017.80
2018-07-23T20:50:59.207Z,101015.21
2018-07-23T20:53:27.614Z,101013.62
2018-07-23T20:55:55.928Z,101012.85
2018-07-23T20:58:24.515Z,101013.44
2018-07-23T21:00:52.869Z,101015.41
2018-07-23T21:03:21.278Z,101009.66
2018-07-23T21:05:49.599Z,101013.33
2018-07-23T21:08:18.015Z,101013.50
2018-07-23T21:10:46.357Z,101014.19
2018-07-23T21:13:14.687Z,101014.56
2018-07-23T21:15:43.032Z,101016.11
2018-07-23T21:18:11.364Z,101019.33
2018-07-23T21:20:39.668Z,101016.95
2018-07-23T21:23:08.149Z,101018.80
2018-07-23T21:25:36.619Z,101021.20
2018-07-23T21:28:05.017Z,101016.36
2018-07-23T21:30:33.433Z,101020.67
2018-07-23T21:33:02.057Z,101020.67
2018-07-23T21:35:30.432Z,101025.68
2018-07-23T21:37:58.816Z,101031.45
2018-07-23T21:40:27.164Z,101031.08
2018-07-23T21:42:55.464Z,101036.53
2018-07-23T21:45:23.814Z,101039.84
2018-07-23T21:47:52.286Z,101029.48
2018-07-23T21:50:20.610Z,101026.63
2018-07-23T21:52:48.930Z,101032.74
2018-07-23T21:55:17.338Z,101036.11
2018-07-23T21:57:45.783Z,101032.76
2018-07-23T22:00:15.456Z,101027.83
2018-07-23T22:02:43.795Z,101032.01
2018-07-23T22:05:12.163Z,101027.28
2018-07-23T22:07:40.919Z,101030.41
2018-07-23T22:10:10.276Z,101031.17
2018-07-23T22:12:38.634Z,101036.80
2018-07-23T22:15:09.220Z,101027.91
2018-07-23T22:17:37.837Z,101036.48
2018-07-23T22:20:06.601Z,101038.38
2018-07-23T22:22:34.955Z,101042.83
2018-07-23T22:25:03.462Z,101037.67
2018-07-23T22:27:31.934Z,101038.19
2018-07-23T22:30:00.340Z,101041.08
2018-07-23T22:32:28.684Z,101034.08
2018-07-23T22:34:57.005Z,101035.66
2018-07-23T22:37:25.338Z,101030.48
2018-07-23T22:39:53.732Z,101030.20
2018-07-23T22:42:23.016Z,101034.74
2018-07-23T22:44:52.088Z,101030.72
2018-07-23T22:47:20.422Z,101031.45
2018-07-23T22:49:48.986Z,101030.25
2018-07-23T22:52:17.696Z,101026.36
2018-07-23T22:54:46.021Z,101027.09
2018-07-23T22:57:14.518Z,101025.06
2018-07-23T22:59:42.936Z,101024.59
2018-07-23T23:02:11.298Z,101017.70
2018-07-23T23:04:39.614Z,101022.47
2018-07-23T23:07:07.994Z,101016.92
2018-07-23T23:09:36.555Z,101020.03
2018-07-23T23:12:04.977Z,101018.73
2018-07-23T23:14:33.533Z,101018.58
2018-07-23T23:17:01.915Z,101016.19
2018-07-23T23:19:30.548Z,101021.13
2018-07-23T23:21:59.031Z,101014.22
2018-07-23T23:24:27.366Z,101011.02
2018-07-23T23:26:55.695Z,101014.13
2018-07-23T23:29:24.089Z,101009.09
2018-07-23T23:31:52.471Z,101014.59
2018-07-23T23:34:20.829Z,101007.80
2018-07-23T23:36:49.156Z,101004.86
2018-07-23T23:39:17.522Z,101007.34
2018-07-23T23:41:46.006Z,101014.30
2018-07-23T23:44:14.354Z,101005.64
2018-07-23T23:46:42.844Z,101008.55
2018-07-23T23:49:11.148Z,101012.16
2018-07-23T23:51:39.498Z,101011.15
2018-07-23T23:54:08.110Z,101015.29
2018-07-23T23:56:36.487Z,101017.05
2018-07-23T23:59:04.841Z,101008.42
